Time;durP1;ratioP1;P1;durP2;ratioP2;P2;SDS_P1;SDS_P2;PMS_P1;PMS_P2;Temp;Humidity;BMP_temperature;BMP_pressure;BME280_temperature;BME280_humidity;BME280_pressure;Samples;Min_cycle;Max_cycle;Signal;HPM_P1;HPM_P2
2021/11/26 00:01:05;;;;;;;25.50;17.48;;;;;;;5.18;73.44;99279.59;2853117;83;20993;-70
2021/11/26 00:05:08;;;;;;;25.45;16.35;;;;;;;5.17;73.59;99277.91;2853122;83;20993;-69
2021/11/26 00:09:09;;;;;;;23.18;19.12;;;;;;;5.17;73.51;99280.55;2852861;83;21056;-68
2021/11/26 00:13:12;;;;;;;27.00;19.50;;;;;;;5.18;73.46;99276.95;2852922;83;21000;-70
2021/11/26 00:17:19;;;;;;;32.90;20.72;;;;;;;5.23;73.52;99266.07;2852994;83;20989;-67
2021/11/26 00:21:20;;;;;;;28.42;19.15;;;;;;;5.25;73.66;99245.69;2853345;83;21053;-67
2021/11/26 00:25:21;;;;;;;27.27;19.05;;;;;;;5.23;73.28;99240.52;2852927;83;21091;-71
2021/11/26 00:29:23;;;;;;;31.50;22.52;;;;;;;5.18;72.92;99237.41;2853119;81;21005;-68
2021/11/26 00:33:25;;;;;;;34.50;22.30;;;;;;;5.18;73.17;99226.86;2852847;83;21071;-71
2021/11/26 00:37:27;;;;;;;35.23;22.65;;;;;;;5.20;73.40;99230.22;2853018;83;20997;-69
2021/11/26 00:41:28;;;;;;;29.60;21.97;;;;;;;5.17;73.56;99234.41;2853099;83;20997;-72
2021/11/26 00:45:31;;;;;;;34.13;22.45;;;;;;;5.16;73.52;99247.23;2853143;83;21021;-69
2021/11/26 00:49:32;;;;;;;34.63;22.87;;;;;;;5.15;74.03;99246.37;2852950;83;21029;-69
2021/11/26 00:53:34;;;;;;;40.80;24.52;;;;;;;5.11;74.24;99240.98;2889956;82;20944;-69
2021/11/26 00:57:36;;;;;;;40.98;26.97;;;;;;;5.11;74.24;99229.13;2905013;82;21027;-69
2021/11/26 01:01:38;;;;;;;50.50;30.48;;;;;;;5.16;74.54;99216.91;2905094;82;21035;-68
2021/11/26 01:05:39;;;;;;;45.35;28.30;;;;;;;5.18;74.39;99203.59;2905834;82;21031;-69
2021/11/26 01:09:41;;;;;;;41.00;26.40;;;;;;;5.19;74.56;99198.68;2905671;82;21003;-68
2021/11/26 01:13:43;;;;;;;42.13;28.70;;;;;;;5.19;74.44;99195.58;2905624;82;21129;-69
2021/11/26 01:17:46;;;;;;;44.23;27.35;;;;;;;5.19;74.45;99182.86;2905715;81;20976;-69
2021/11/26 01:21:48;;;;;;;41.42;26.25;;;;;;;5.22;74.72;99184.80;2893231;81;21022;-68
2021/11/26 01:25:49;;;;;;;44.67;28.07;;;;;;;5.28;74.65;99183.48;2882504;82;21019;-68
2021/11/26 01:29:51;;;;;;;39.00;26.55;;;;;;;5.28;74.32;99175.08;2882290;82;21039;-67
2021/11/26 01:33:54;;;;;;;42.90;28.47;;;;;;;5.32;74.52;99166.46;2882214;82;21099;-69
2021/11/26 01:37:56;;;;;;;42.95;27.32;;;;;;;5.32;74.52;99163.83;2882292;82;21035;-70
2021/11/26 01:41:58;;;;;;;38.83;24.60;;;;;;;5.34;74.65;99157.13;2882208;82;21047;-70
2021/11/26 01:46:10;;;;;;;37.98;28.90;;;;;;;5.35;74.60;99164.90;2882207;82;21027;-71
2021/11/26 01:50:13;;;;;;;40.15;27.82;;;;;;;5.37;74.39;99156.88;2882434;82;21008;-69
2021/11/26 01:54:15;;;;;;;48.85;28.80;;;;;;;5.38;74.10;99154.11;2882477;82;21054;-67
2021/11/26 01:58:17;;;;;;;43.20;29.48;;;;;;;5.37;74.15;99152.92;2882676;82;21030;-70
2021/11/26 02:02:20;;;;;;;35.75;26.87;;;;;;;5.35;74.29;99150.39;2882392;82;21023;-66
2021/11/26 02:06:22;;;;;;;45.35;28.45;;;;;;;5.28;74.16;99147.89;2882472;82;21003;-73
2021/11/26 02:10:24;;;;;;;39.70;28.27;;;;;;;5.34;74.19;99142.13;2882114;82;21054;-72
2021/11/26 02:14:25;;;;;;;45.55;29.85;;;;;;;5.35;74.11;99144.30;2882278;82;21086;-70
2021/11/26 02:18:27;;;;;;;37.00;26.20;;;;;;;5.37;74.34;99133.97;2882293;82;20992;-70
2021/11/26 02:22:29;;;;;;;39.92;25.23;;;;;;;5.36;74.03;99138.88;2886586;81;21023;-69
2021/11/26 02:26:37;;;;;;;47.67;28.47;;;;;;;5.38;74.48;99134.82;2889580;82;21007;-71
2021/11/26 02:30:40;;;;;;;40.70;28.05;;;;;;;5.38;74.69;99130.38;2889704;82;21083;-70
2021/11/26 02:34:42;;;;;;;37.20;23.38;;;;;;;5.40;75.04;99117.08;2889820;82;20991;-70
2021/11/26 02:38:43;;;;;;;30.90;21.50;;;;;;;5.38;75.26;99125.59;2889687;82;21046;-71
2021/11/26 02:42:46;;;;;;;37.88;25.45;;;;;;;5.37;75.21;99118.14;2889776;82;21042;-70
2021/11/26 02:46:47;;;;;;;41.18;27.32;;;;;;;5.37;75.22;99115.51;2889866;82;21054;-70
2021/11/26 02:50:50;;;;;;;36.80;24.65;;;;;;;5.34;75.19;99103.06;2889745;82;20995;-74
2021/11/26 02:54:52;;;;;;;38.75;22.75;;;;;;;5.32;75.08;99106.30;2889832;82;21011;-73
2021/11/26 02:58:56;;;;;;;30.72;21.75;;;;;;;5.29;74.87;99105.56;2889642;82;21046;-73
2021/11/26 03:02:58;;;;;;;37.15;23.40;;;;;;;5.28;75.14;99110.97;2890278;81;20988;-69
2021/11/26 03:07:07;;;;;;;36.38;23.35;;;;;;;5.27;75.38;99102.21;2889996;81;21023;-69
2021/11/26 03:11:09;;;;;;;32.58;21.62;;;;;;;5.28;75.17;99095.98;2811099;81;21122;-69
2021/11/26 03:15:12;;;;;;;30.48;21.95;;;;;;;5.28;75.18;99088.56;2832489;84;21037;-69
2021/11/26 03:19:14;;;;;;;32.58;21.97;;;;;;;5.24;74.84;99081.36;2865032;83;21001;-72
2021/11/26 03:23:17;;;;;;;33.65;23.22;;;;;;;5.26;75.39;99079.44;2811428;84;21022;-73
2021/11/26 03:27:18;;;;;;;30.88;22.25;;;;;;;5.30;75.23;99069.50;2865103;83;20985;-73
2021/11/26 03:31:20;;;;;;;35.13;23.62;;;;;;;5.31;75.36;99057.98;2810410;84;20967;-73
2021/11/26 03:35:23;;;;;;;38.65;25.08;;;;;;;5.37;75.12;99041.67;2864915;83;21024;-70
2021/11/26 03:39:25;;;;;;;38.63;23.85;;;;;;;5.39;75.11;99038.42;2810925;84;21018;-73
2021/11/26 03:43:26;;;;;;;37.10;24.40;;;;;;;5.40;75.36;99036.64;2865272;83;21490;-72
2021/11/26 03:47:28;;;;;;;35.52;23.77;;;;;;;5.44;75.48;99034.11;2810860;84;21073;-73
2021/11/26 03:51:30;;;;;;;31.27;22.82;;;;;;;5.42;75.35;99028.12;2864980;83;21056;-71
2021/11/26 03:55:31;;;;;;;32.65;23.07;;;;;;;5.41;75.30;99024.66;2810792;84;21058;-72
2021/11/26 03:59:33;;;;;;;33.67;22.30;;;;;;;5.39;75.22;99031.83;2864991;83;21040;-70
2021/11/26 04:03:35;;;;;;;34.53;23.07;;;;;;;5.34;75.33;99027.91;2810932;84;21106;-70
2021/11/26 04:07:37;;;;;;;40.08;24.12;;;;;;;5.33;75.50;99027.06;2865566;83;21017;-72
2021/11/26 04:11:39;;;;;;;40.95;27.90;;;;;;;5.31;75.32;99029.48;2810964;84;21010;-71
2021/11/26 04:15:42;;;;;;;37.28;24.18;;;;;;;5.27;75.41;99033.66;2845011;83;21057;-72
2021/11/26 04:19:44;;;;;;;39.23;24.98;;;;;;;5.26;75.41;99024.07;2845355;83;21004;-69
2021/11/26 04:23:46;;;;;;;32.98;22.87;;;;;;;5.29;75.47;99022.50;2844986;83;21026;-70
2021/11/26 04:27:49;;;;;;;32.95;25.90;;;;;;;5.25;75.30;99019.76;2844964;83;21031;-70
2021/11/26 04:31:51;;;;;;;41.48;22.42;;;;;;;5.25;75.42;99019.76;2845329;83;20989;-70
2021/11/26 04:35:53;;;;;;;28.67;22.02;;;;;;;5.26;75.75;99024.56;2845261;83;21025;-70
2021/11/26 04:39:55;;;;;;;33.02;21.48;;;;;;;5.24;75.58;99019.41;2845357;83;20986;-70
2021/11/26 04:43:57;;;;;;;32.75;23.07;;;;;;;5.23;75.69;99015.09;2845454;83;21014;-70
2021/11/26 04:47:58;;;;;;;34.08;21.20;;;;;;;5.22;76.09;99018.69;2845503;83;20955;-70
2021/11/26 04:52:00;;;;;;;35.95;25.35;;;;;;;5.22;76.14;99009.95;2845319;83;21013;-70
2021/11/26 04:56:02;;;;;;;35.35;23.27;;;;;;;5.22;76.15;99002.87;2845511;83;21045;-70
2021/11/26 05:00:06;;;;;;;31.40;24.67;;;;;;;5.25;76.51;99002.63;2845571;83;20982;-69
2021/11/26 05:04:08;;;;;;;35.28;24.77;;;;;;;5.30;76.66;98998.30;2845518;83;20947;-69
2021/11/26 05:08:10;;;;;;;37.17;25.70;;;;;;;5.33;76.80;98999.87;2845433;83;21085;-70
2021/11/26 05:12:12;;;;;;;34.63;22.95;;;;;;;5.31;76.63;98995.20;2863686;83;21053;-70
2021/11/26 05:16:15;;;;;;;35.70;25.95;;;;;;;5.29;76.53;99002.73;2868578;83;21005;-70
2021/11/26 05:20:17;;;;;;;36.20;24.85;;;;;;;5.34;76.65;99005.00;2868919;83;21045;-70
2021/11/26 05:24:19;;;;;;;41.63;28.57;;;;;;;5.36;76.78;98997.80;2869029;83;21052;-70
2021/11/26 05:28:21;;;;;;;37.90;24.70;;;;;;;5.40;76.80;98987.38;2868637;83;21060;-70
2021/11/26 05:32:22;;;;;;;36.40;24.57;;;;;;;5.45;76.32;98980.39;2868705;83;21005;-70
2021/11/26 05:36:24;;;;;;;35.55;24.45;;;;;;;5.51;76.74;98983.02;2868962;83;20990;-70
2021/11/26 05:40:26;;;;;;;41.98;27.10;;;;;;;5.60;76.96;98988.88;2868831;83;21017;-70
2021/11/26 05:44:28;;;;;;;36.77;26.07;;;;;;;5.66;76.75;98987.05;2868762;83;21009;-70
2021/11/26 05:48:29;;;;;;;37.73;24.40;;;;;;;5.76;76.58;98983.62;2868575;83;21076;-70
2021/11/26 05:52:31;;;;;;;30.92;21.35;;;;;;;5.80;76.72;98971.87;2868234;83;21041;-70
2021/11/26 05:56:33;;;;;;;35.73;24.37;;;;;;;5.90;76.36;98972.77;2868997;83;21040;-70
2021/11/26 06:00:35;;;;;;;40.52;27.13;;;;;;;5.92;76.25;98969.52;2868732;83;21048;-69
2021/11/26 06:04:37;;;;;;;34.25;26.42;;;;;;;5.95;76.43;98961.34;2868888;83;21013;-70
2021/11/26 06:08:39;;;;;;;33.83;22.37;;;;;;;5.75;76.26;98960.84;2868827;83;21049;-70
2021/11/26 06:12:44;;;;;;;50.55;26.90;;;;;;;5.60;76.89;98955.05;2868051;82;21057;-69
2021/11/26 06:16:46;;;;;;;34.27;24.27;;;;;;;5.60;77.15;98959.00;2869080;83;21069;-71
2021/11/26 06:20:48;;;;;;;46.98;28.52;;;;;;;5.62;76.92;98962.35;2868670;83;21001;-70
2021/11/26 06:24:49;;;;;;;40.23;26.40;;;;;;;5.66;76.83;98957.17;2868958;83;20997;-70
2021/11/26 06:28:51;;;;;;;35.35;23.85;;;;;;;5.77;77.20;98950.53;2868783;83;21557;-70
2021/11/26 06:32:54;;;;;;;37.63;26.80;;;;;;;5.86;77.00;98944.47;2868845;83;21029;-70
2021/11/26 06:36:57;;;;;;;56.05;35.92;;;;;;;6.00;76.31;98939.84;2840447;83;37695;-70
2021/11/26 06:40:58;;;;;;;39.60;28.20;;;;;;;6.03;75.73;98940.93;2868015;82;21005;-69
2021/11/26 06:45:00;;;;;;;36.80;24.82;;;;;;;5.82;76.65;98944.38;2868751;83;21025;-70
2021/11/26 06:49:02;;;;;;;46.63;30.43;;;;;;;5.56;77.50;98943.44;2869016;83;21009;-70
2021/11/26 06:53:06;;;;;;;37.60;25.30;;;;;;;5.49;77.84;98935.66;2869122;83;20969;-70
2021/11/26 06:57:08;;;;;;;35.48;25.15;;;;;;;5.49;78.59;98942.25;2868981;83;20966;-70
2021/11/26 07:01:12;;;;;;;38.33;25.82;;;;;;;5.55;79.09;98940.44;2868710;83;21143;-70
2021/11/26 07:05:15;;;;;;;33.88;23.80;;;;;;;5.64;78.69;98937.53;2868915;83;21025;-70
2021/11/26 07:09:16;;;;;;;52.83;36.88;;;;;;;5.66;78.52;98937.38;2868569;83;21072;-70
2021/11/26 07:13:18;;;;;;;53.52;34.43;;;;;;;5.54;78.86;98928.69;2868272;83;21017;-70
2021/11/26 07:17:20;;;;;;;53.60;34.90;;;;;;;5.45;79.02;98927.64;2867998;83;21029;-70
2021/11/26 07:21:22;;;;;;;54.77;36.45;;;;;;;5.38;79.13;98931.27;2868767;83;21088;-70
2021/11/26 07:25:23;;;;;;;51.23;35.78;;;;;;;5.36;79.29;98937.14;2869127;83;21044;-70
2021/11/26 07:29:25;;;;;;;40.88;27.07;;;;;;;5.38;78.86;98925.98;2868796;83;21010;-70
2021/11/26 07:33:27;;;;;;;42.85;26.82;;;;;;;5.42;78.71;98930.53;2868796;83;21073;-70
2021/11/26 07:37:29;;;;;;;55.92;35.15;;;;;;;5.47;78.95;98934.94;2868722;83;21045;-70
2021/11/26 07:41:30;;;;;;;45.23;29.30;;;;;;;5.53;78.68;98940.20;2879326;82;21034;-70
2021/11/26 07:45:32;;;;;;;54.08;32.08;;;;;;;5.60;78.48;98939.22;2898367;82;21026;-70
2021/11/26 07:49:34;;;;;;;46.85;30.02;;;;;;;5.66;78.29;98935.59;2897976;82;21050;-70
2021/11/26 07:53:36;;;;;;;59.08;40.90;;;;;;;5.69;78.00;98933.16;2897904;82;21027;-70
2021/11/26 07:57:40;;;;;;;52.43;34.53;;;;;;;5.75;78.14;98932.67;2898040;82;21018;-71
2021/11/26 08:01:41;;;;;;;57.58;35.50;;;;;;;5.78;77.85;98925.81;2898035;82;20969;-71
2021/11/26 08:05:43;;;;;;;57.38;37.00;;;;;;;5.83;78.17;98925.44;2898384;82;21082;-70
2021/11/26 08:09:45;;;;;;;54.55;36.98;;;;;;;5.84;78.02;98916.05;2898262;82;21035;-69
2021/11/26 08:13:47;;;;;;;58.78;36.80;;;;;;;5.80;77.93;98917.28;2831498;83;21067;-69
2021/11/26 08:17:49;;;;;;;51.75;31.45;;;;;;;5.77;78.32;98912.27;2846185;82;21058;-70
2021/11/26 08:21:52;;;;;;;46.18;33.10;;;;;;;5.68;78.74;98911.23;2845870;83;20999;-69
2021/11/26 08:25:57;;;;;;;60.08;37.05;;;;;;;5.68;79.11;98909.91;2840840;84;21030;-69
2021/11/26 08:29:59;;;;;;;53.63;35.40;;;;;;;5.65;78.57;98908.86;2840970;84;21071;-69
2021/11/26 08:34:02;;;;;;;66.72;40.98;;;;;;;5.69;78.74;98902.82;2856658;82;21449;-70
2021/11/26 08:38:04;;;;;;;299.32;168.32;;;;;;;5.65;79.13;98897.45;2873766;82;21095;-70
2021/11/26 08:42:06;;;;;;;345.42;198.17;;;;;;;5.63;79.33;98887.52;2818639;84;21036;-70
2021/11/26 08:46:08;;;;;;;332.85;193.93;;;;;;;5.67;79.43;98889.78;2818865;84;21103;-70
2021/11/26 08:50:13;;;;;;;293.12;174.80;;;;;;;5.67;78.85;98879.69;2819059;84;21151;-70
2021/11/26 08:54:14;;;;;;;200.87;119.33;;;;;;;5.71;78.54;98879.81;2818475;84;21072;-70
2021/11/26 08:58:18;;;;;;;60.10;37.78;;;;;;;5.69;77.99;98875.12;2819180;84;21028;-71
2021/11/26 09:02:20;;;;;;;51.75;35.20;;;;;;;5.78;77.95;98870.87;2818779;84;21082;-70
2021/11/26 09:06:24;;;;;;;44.55;29.67;;;;;;;5.83;77.39;98859.47;2818808;84;21104;-70
2021/11/26 09:10:30;;;;;;;43.02;28.52;;;;;;;5.93;77.15;98852.42;2817310;83;21064;-71
2021/11/26 09:14:32;;;;;;;67.27;43.83;;;;;;;6.08;77.27;98847.64;2795224;85;21075;-70
2021/11/26 09:18:34;;;;;;;53.05;33.48;;;;;;;6.24;77.05;98833.97;2795943;85;21040;-72
2021/11/26 09:22:36;;;;;;;49.42;30.02;;;;;;;6.36;76.81;98825.45;2796910;85;21015;-70
2021/11/26 09:26:38;;;;;;;49.45;30.15;;;;;;;6.46;75.85;98812.75;2796988;85;21019;-70
2021/11/26 09:30:40;;;;;;;41.20;27.87;;;;;;;6.53;75.90;98807.28;2797151;85;21409;-71
2021/11/26 09:34:42;;;;;;;46.25;32.53;;;;;;;6.63;75.81;98808.12;2796175;85;21110;-70
2021/11/26 09:38:43;;;;;;;52.45;30.08;;;;;;;6.65;75.47;98806.17;2798083;85;21044;-70
2021/11/26 09:42:46;;;;;;;42.88;30.68;;;;;;;6.65;74.79;98805.36;2804735;85;21080;-70
2021/11/26 09:46:56;;;;;;;53.68;32.35;;;;;;;6.66;75.19;98806.52;2804441;84;21079;-71
2021/11/26 09:50:56;;;;;;;49.45;30.35;;;;;;;6.74;76.30;98801.06;2804367;85;21064;-71
2021/11/26 09:54:58;;;;;;;38.80;28.05;;;;;;;6.84;76.23;98788.66;2804468;84;21084;-71
2021/11/26 09:59:01;;;;;;;40.10;25.00;;;;;;;6.98;75.64;98773.72;2804860;85;21083;-70
2021/11/26 10:03:02;;;;;;;42.78;31.25;;;;;;;7.03;74.48;98764.05;2804532;85;21079;-70
2021/11/26 10:07:05;;;;;;;41.85;27.17;;;;;;;7.08;74.07;98766.28;2804528;85;21036;-71
2021/11/26 10:11:08;;;;;;;39.08;25.50;;;;;;;7.09;73.77;98758.19;2817485;83;21090;-72
2021/11/26 10:15:09;;;;;;;37.13;24.67;;;;;;;7.01;73.36;98743.53;2855073;83;21018;-73
2021/11/26 10:19:12;;;;;;;35.33;25.75;;;;;;;6.96;73.32;98734.70;2854681;83;20995;-72
2021/11/26 10:23:19;;;;;;;38.80;25.25;;;;;;;7.06;73.80;98735.16;2855100;83;21066;-72
2021/11/26 10:27:49;;;;;;;32.58;21.30;;;;;;;7.15;74.10;98735.14;2855076;83;21022;-71
2021/11/26 10:32:08;;;;;;;32.50;22.65;;;;;;;7.15;72.95;98726.39;2855055;83;21033;-71
2021/11/26 10:36:10;;;;;;;30.70;22.73;;;;;;;7.12;72.51;98713.45;2854742;83;21034;-72
2021/11/26 10:40:25;;;;;;;30.23;19.42;;;;;;;7.10;73.55;98703.51;2860662;82;20998;-72
2021/11/26 10:57:54;;;;;;;28.25;20.02;;;;;;;6.92;73.97;98692.34;2864521;83;21096;-72
2021/11/26 11:01:47;;;;;;;35.58;21.95;;;;;;;6.89;73.70;98686.02;2861938;83;21018;-73
2021/11/26 11:05:48;;;;;;;29.75;20.72;;;;;;;6.84;73.84;98677.66;2864648;82;20966;-72
2021/11/26 11:09:57;;;;;;;36.55;23.18;;;;;;;6.89;74.39;98667.52;2875908;82;21012;-72
2021/11/26 11:14:01;;;;;;;41.20;27.17;;;;;;;6.93;74.32;98653.03;2889081;82;21052;-72
2021/11/26 11:18:03;;;;;;;34.83;25.25;;;;;;;7.04;74.58;98647.21;2889855;82;21063;-72
2021/11/26 11:22:05;;;;;;;36.35;26.93;;;;;;;7.06;73.32;98634.20;2889960;82;21692;-73
2021/11/26 11:26:08;;;;;;;38.70;25.97;;;;;;;7.14;73.18;98630.34;2890193;82;21043;-72
2021/11/26 11:30:11;;;;;;;40.48;26.35;;;;;;;7.17;73.47;98632.34;2890581;82;21056;-72
2021/11/26 11:34:20;;;;;;;36.13;25.47;;;;;;;7.23;72.91;98619.38;2889689;82;21067;-73
2021/11/26 11:38:21;;;;;;;41.68;25.80;;;;;;;7.18;72.33;98595.19;2890022;82;21596;-72
2021/11/26 11:42:40;;;;;;;40.05;26.02;;;;;;;7.34;72.42;98613.58;2890227;82;21055;-72
2021/11/26 11:46:41;;;;;;;40.45;24.23;;;;;;;7.28;72.12;98597.32;2889642;82;21067;-72
2021/11/26 11:50:51;;;;;;;46.37;26.33;;;;;;;7.29;72.18;98589.73;2890124;82;21378;-73
2021/11/26 11:54:53;;;;;;;40.88;27.48;;;;;;;7.37;71.31;98579.73;2890197;82;21071;-72
2021/11/26 11:58:58;;;;;;;40.83;27.10;;;;;;;7.36;71.24;98575.40;2890278;82;21063;-75
2021/11/26 12:03:11;;;;;;;35.85;24.60;;;;;;;7.49;71.68;98562.33;2890476;82;21697;-71
2021/11/26 12:07:28;;;;;;;36.20;24.57;;;;;;;7.58;70.83;98563.59;2889835;82;21060;-73
2021/11/26 12:11:34;;;;;;;36.20;25.17;;;;;;;7.55;71.01;98559.08;2851841;82;21048;-71
2021/11/26 12:15:36;;;;;;;32.38;24.98;;;;;;;7.38;70.26;98551.45;2825982;83;21060;-72
2021/11/26 12:19:38;;;;;;;36.83;23.70;;;;;;;7.37;71.54;98549.80;2849853;83;21094;-72
2021/11/26 12:28:12;;;;;;;46.75;28.77;;;;;;;7.42;71.18;98540.91;2830051;83;20985;-72
2021/11/26 12:32:34;;;;;;;41.00;27.42;;;;;;;7.53;70.24;98531.46;2850046;83;21413;-72
2021/11/26 12:36:47;;;;;;;47.75;26.12;;;;;;;7.60;70.50;98522.91;2740981;86;21109;-72
2021/11/26 12:40:49;;;;;;;40.38;26.90;;;;;;;7.63;70.18;98518.64;2875747;82;21017;-72
2021/11/26 12:45:01;;;;;;;42.43;25.62;;;;;;;7.64;69.94;98507.07;2827093;83;21100;-71
2021/11/26 12:53:26;;;;;;;38.78;25.30;;;;;;;7.70;69.74;98495.90;2827138;84;21069;-71
2021/11/26 12:57:31;;;;;;;39.98;26.55;;;;;;;7.70;69.45;98494.58;2826227;84;21036;-71
2021/11/26 13:01:33;;;;;;;36.85;27.52;;;;;;;7.70;70.22;98494.58;2826722;84;21061;-72
2021/11/26 13:05:35;;;;;;;41.75;26.60;;;;;;;7.71;70.07;98486.98;2826367;84;21012;-72
2021/11/26 13:09:47;;;;;;;41.73;28.25;;;;;;;7.71;69.43;98483.00;2826412;84;21089;-72
2021/11/26 13:13:49;;;;;;;46.25;29.15;;;;;;;7.75;69.64;98483.03;2826082;84;21015;-71
2021/11/26 13:17:54;;;;;;;50.63;33.28;;;;;;;7.70;69.33;98469.44;2825885;83;21084;-71
2021/11/26 13:21:57;;;;;;;39.83;28.42;;;;;;;7.57;70.03;98471.14;2863790;83;21047;-72
2021/11/26 13:26:03;;;;;;;46.05;30.97;;;;;;;7.45;70.17;98465.72;2867443;83;21086;-72
2021/11/26 13:30:06;;;;;;;37.28;24.32;;;;;;;7.45;70.05;98461.75;2867498;83;21035;-71
2021/11/26 13:34:10;;;;;;;47.27;29.92;;;;;;;7.46;70.31;98455.48;2841234;83;21044;-71
2021/11/26 13:38:29;;;;;;;37.58;24.57;;;;;;;7.49;70.44;98452.05;2867944;83;21039;-72
2021/11/26 13:42:33;;;;;;;45.28;28.15;;;;;;;7.48;70.67;98441.61;2867806;82;21071;-71
2021/11/26 13:46:42;;;;;;;59.48;39.70;;;;;;;7.47;70.84;98435.50;2867427;82;21066;-72
2021/11/26 13:50:44;;;;;;;39.00;24.82;;;;;;;7.45;70.91;98425.53;2867333;82;21039;-72
2021/11/26 13:54:46;;;;;;;63.87;40.00;;;;;;;7.42;70.42;98431.13;2867488;82;21068;-73
2021/11/26 13:59:00;;;;;;;52.00;34.55;;;;;;;7.38;70.79;98425.33;2866052;83;21064;-72
2021/11/26 14:03:04;;;;;;;43.17;32.25;;;;;;;7.40;71.09;98418.55;2866060;83;21045;-72
2021/11/26 14:07:14;;;;;;;41.85;26.82;;;;;;;7.45;71.11;98419.42;2866228;83;21045;-72
2021/11/26 14:11:28;;;;;;;41.68;26.93;;;;;;;7.46;71.04;98413.97;2866352;83;21040;-72
2021/11/26 14:15:30;;;;;;;38.58;24.25;;;;;;;7.44;70.83;98401.39;2846940;82;21033;-72
2021/11/26 14:19:46;;;;;;;47.27;28.35;;;;;;;7.40;70.71;98402.68;2847829;83;21014;-71
2021/11/26 14:23:59;;;;;;;;;;;;;;;7.35;70.97;98397.02;2848087;83;21029;-72
2021/11/26 14:28:15;;;;;;;34.95;25.30;;;;;;;7.30;71.30;98394.82;2847318;83;20126;-72
2021/11/26 14:32:16;;;;;;;57.70;38.95;;;;;;;7.25;71.39;98405.03;2847010;83;21049;-72
2021/11/26 14:36:18;;;;;;;50.40;32.40;;;;;;;7.17;71.59;98400.49;2847095;83;21013;-71
2021/11/26 14:40:23;;;;;;;39.42;25.72;;;;;;;7.16;71.88;98396.19;2847084;83;21045;-71
2021/11/26 14:44:25;;;;;;;36.37;24.30;;;;;;;7.16;72.01;98393.54;2847281;83;21093;-71
2021/11/26 14:48:39;;;;;;;49.77;31.85;;;;;;;7.15;71.89;98394.02;2847226;83;22465;-71
2021/11/26 14:52:40;;;;;;;48.85;34.40;;;;;;;7.16;72.09;98381.64;2826711;83;21033;-71
2021/11/26 14:56:42;;;;;;;60.35;37.65;;;;;;;7.15;72.41;98383.44;2847400;83;21029;-71
2021/11/26 15:00:47;;;;;;;59.83;35.03;;;;;;;7.13;72.70;98384.59;2847072;83;21021;-71
2021/11/26 15:04:49;;;;;;;52.78;29.12;;;;;;;7.14;72.84;98382.29;2847276;83;21084;-72
2021/11/26 15:08:53;;;;;;;46.18;33.67;;;;;;;7.11;73.24;98373.34;2847155;83;21031;-72
2021/11/26 15:12:55;;;;;;;42.50;25.65;;;;;;;7.08;73.30;98375.78;2826075;83;21062;-71
2021/11/26 15:16:57;;;;;;;39.05;27.48;;;;;;;7.08;73.80;98367.03;2845279;83;21046;-71
2021/11/26 15:21:00;;;;;;;182.15;106.27;;;;;;;7.03;73.65;98363.98;2845455;83;21089;-72
2021/11/26 15:25:01;;;;;;;168.32;96.42;;;;;;;6.75;75.96;98356.12;2845706;83;21051;-72
2021/11/26 15:29:03;;;;;;;136.12;83.22;;;;;;;6.52;77.50;98349.42;2845656;83;21026;-71
2021/11/26 15:33:05;;;;;;;116.60;69.77;;;;;;;6.42;77.66;98347.34;2845623;83;21077;-71
2021/11/26 15:37:07;;;;;;;101.35;61.35;;;;;;;6.36;78.27;98339.98;2845494;83;21029;-72
2021/11/26 15:41:10;;;;;;;90.17;54.85;;;;;;;6.36;78.73;98332.91;2825692;83;21073;-71
2021/11/26 15:45:14;;;;;;;87.85;53.00;;;;;;;6.38;78.43;98327.45;2820460;84;21057;-70
2021/11/26 15:49:15;;;;;;;102.58;62.78;;;;;;;6.40;78.51;98320.25;2820236;84;21089;-71
2021/11/26 15:53:18;;;;;;;98.75;58.33;;;;;;;6.43;78.43;98307.56;2819998;84;21018;-71
2021/11/26 15:57:20;;;;;;;82.20;50.33;;;;;;;6.51;78.27;98309.97;2854050;83;21052;-70
2021/11/26 16:01:23;;;;;;;67.05;44.65;;;;;;;6.51;78.49;98302.05;2854030;83;21036;-70
2021/11/26 16:05:25;;;;;;;72.47;45.05;;;;;;;6.47;78.12;98299.33;2853977;83;21133;-70
2021/11/26 16:09:26;;;;;;;87.20;52.75;;;;;;;6.36;79.01;98289.33;2853980;83;21067;-70
2021/11/26 16:13:32;;;;;;;84.10;50.35;;;;;;;6.42;78.85;98290.56;2853628;83;21055;-70
2021/11/26 16:17:34;;;;;;;85.47;53.50;;;;;;;6.44;78.93;98292.55;2853538;83;21516;-71
2021/11/26 16:21:36;;;;;;;78.07;52.85;;;;;;;6.43;78.96;98289.07;2853276;83;21540;-71
2021/11/26 16:25:38;;;;;;;100.30;54.88;;;;;;;6.56;78.73;98291.86;2853325;83;21537;-70
2021/11/26 16:29:40;;;;;;;92.82;49.20;;;;;;;6.66;78.51;98286.00;2853713;83;21032;-70
2021/11/26 16:33:51;;;;;;;88.20;55.00;;;;;;;6.69;78.11;98275.16;2854026;83;21103;-70
2021/11/26 16:37:48;;;;;;;73.03;47.77;;;;;;;6.70;77.88;98270.21;2853822;83;21040;-70
2021/11/26 16:41:51;;;;;;;70.92;47.70;;;;;;;6.66;78.12;98267.50;2866970;83;21125;-70
2021/11/26 16:45:53;;;;;;;75.65;45.73;;;;;;;6.58;78.49;98262.15;2867811;83;21145;-71
2021/11/26 16:49:55;;;;;;;76.67;44.65;;;;;;;6.59;78.60;98261.17;2826268;83;21557;-70
2021/11/26 16:53:57;;;;;;;80.10;49.63;;;;;;;6.69;78.41;98256.66;2825805;84;21042;-70
2021/11/26 16:58:01;;;;;;;98.85;55.73;;;;;;;6.69;78.01;98254.02;2820420;84;21050;-71
2021/11/26 17:02:03;;;;;;;81.32;51.23;;;;;;;6.73;78.21;98252.39;2825542;84;21051;-70
2021/11/26 17:06:05;;;;;;;85.35;53.85;;;;;;;6.79;78.49;98251.77;2826472;84;21022;-71
2021/11/26 17:10:09;;;;;;;91.22;57.40;;;;;;;6.86;78.41;98244.89;2825834;82;21063;-70
2021/11/26 17:14:14;;;;;;;86.72;54.03;;;;;;;6.92;78.00;98242.98;2823288;83;21109;-70
2021/11/26 17:18:19;;;;;;;80.05;47.62;;;;;;;6.89;77.96;98240.64;2848112;83;21050;-71
2021/11/26 17:22:21;;;;;;;78.02;45.33;;;;;;;6.79;77.95;98235.44;2819826;84;21073;-70
2021/11/26 17:26:23;;;;;;;85.67;53.35;;;;;;;6.67;77.85;98226.89;2847895;83;21042;-70
2021/11/26 17:30:26;;;;;;;75.08;50.65;;;;;;;6.75;78.68;98219.53;2818889;84;21413;-71
2021/11/26 17:34:28;;;;;;;71.22;46.90;;;;;;;6.83;78.68;98211.69;2848439;83;21082;-70
2021/11/26 17:38:30;;;;;;;74.60;48.87;;;;;;;6.82;78.56;98215.79;2815425;84;21074;-71
2021/11/26 17:42:32;;;;;;;84.97;48.58;;;;;;;6.71;78.87;98221.66;2819129;84;21083;-73
2021/11/26 17:46:36;;;;;;;80.45;48.02;;;;;;;6.62;79.07;98208.03;2819609;84;21042;-71
2021/11/26 17:50:38;;;;;;;97.53;52.60;;;;;;;6.54;79.86;98209.29;2819927;84;20983;-72
2021/11/26 17:54:39;;;;;;;74.32;48.83;;;;;;;6.42;80.28;98206.86;2819810;84;21089;-70
2021/11/26 17:58:41;;;;;;;80.35;53.75;;;;;;;6.28;80.90;98208.69;2819944;84;21049;-70
2021/11/26 18:02:43;;;;;;;84.97;52.33;;;;;;;6.11;81.46;98211.66;2820373;84;21053;-70
2021/11/26 18:06:49;;;;;;;75.55;44.27;;;;;;;5.99;81.73;98209.69;2820127;84;21049;-70
2021/11/26 18:10:52;;;;;;;78.83;45.43;;;;;;;6.02;81.95;98204.14;2777099;85;21073;-69
2021/11/26 18:14:53;;;;;;;73.47;44.13;;;;;;;6.05;82.21;98200.38;2818510;84;21057;-68
2021/11/26 18:18:55;;;;;;;73.52;43.28;;;;;;;6.07;82.75;98193.95;2778030;85;21038;-68
2021/11/26 18:22:57;;;;;;;58.13;39.15;;;;;;;6.12;83.42;98195.68;2777528;85;21125;-68
2021/11/26 18:27:01;;;;;;;48.70;29.65;;;;;;;6.02;82.41;98190.12;2777943;85;21121;-68
2021/11/26 18:31:03;;;;;;;51.23;29.60;;;;;;;6.04;82.01;98182.38;2777893;85;21019;-68
2021/11/26 18:35:09;;;;;;;52.70;28.83;;;;;;;6.12;80.34;98186.44;2778098;85;21338;-68
2021/11/26 18:39:12;;;;;;;47.48;32.90;;;;;;;6.07;81.45;98186.55;2764846;85;21076;-68
2021/11/26 18:43:20;;;;;;;52.80;35.70;;;;;;;6.06;81.74;98177.78;2778117;85;21098;-68
2021/11/26 18:47:20;;;;;;;46.45;32.05;;;;;;;6.05;81.99;98176.62;2814621;83;21063;-68
2021/11/26 18:51:23;;;;;;;54.75;36.75;;;;;;;5.85;81.92;98173.56;2814041;84;21048;-69
2021/11/26 18:55:26;;;;;;;98.92;66.00;;;;;;;5.77;82.43;98176.59;2813836;83;21044;-68
2021/11/26 18:59:28;;;;;;;60.30;40.83;;;;;;;5.78;82.59;98175.62;2814020;84;21760;-69
2021/11/26 19:03:30;;;;;;;61.85;36.42;;;;;;;5.80;82.59;98177.14;2814084;84;21035;-69
2021/11/26 19:07:31;;;;;;;53.28;34.95;;;;;;;5.76;82.51;98181.06;2813831;84;21047;-69
2021/11/26 19:11:33;;;;;;;52.10;35.17;;;;;;;5.72;82.42;98181.02;2817495;83;21050;-69